Time;durP1;ratioP1;P1;durP2;ratioP2;P2;SDS_P1;SDS_P2;PMS_P1;PMS_P2;Temp;Humidity;BMP_temperature;BMP_pressure;BME280_temperature;BME280_humidity;BME280_pressure;Samples;Min_cycle;Max_cycle;Signal;HPM_P1;HPM_P2
2022/02/22 00:01:17;;;;;;;1999.90;999.90;;;;;;;5.01;75.10;163731.84;5016433;28;20485;-68
2022/02/22 00:03:43;;;;;;;1999.90;999.90;;;;;;;5.19;74.89;163779.88;5019449;28;20169;-67
2022/02/22 00:06:10;;;;;;;1999.90;999.90;;;;;;;5.06;75.02;163745.53;5014077;28;20084;-67
2022/02/22 00:08:36;;;;;;;1999.90;999.90;;;;;;;5.10;74.95;163756.53;5009579;28;20096;-67
2022/02/22 00:11:03;;;;;;;1999.90;999.90;;;;;;;5.08;74.90;163751.06;5014541;28;20102;-68
2022/02/22 00:13:29;;;;;;;1999.90;999.90;;;;;;;4.98;75.16;163723.63;5020375;28;20049;-67
2022/02/22 00:15:57;;;;;;;1999.90;999.90;;;;;;;4.90;75.70;163703.03;5018839;28;20115;-68
2022/02/22 00:18:23;;;;;;;1999.90;999.90;;;;;;;5.08;75.52;163751.06;5015585;28;20085;-68
2022/02/22 00:20:50;;;;;;;1999.90;999.90;;;;;;;4.91;75.57;163707.16;5024567;28;20418;-68
2022/02/22 00:23:16;;;;;;;1999.90;999.90;;;;;;;4.84;75.55;163686.53;5023912;28;20041;-68
2022/02/22 00:25:44;;;;;;;1999.90;999.90;;;;;;;4.84;75.85;163687.94;5016035;28;20048;-68
2022/02/22 00:28:11;;;;;;;1999.90;999.90;;;;;;;5.05;75.42;163742.84;5012729;28;20085;-67
2022/02/22 00:30:37;;;;;;;1999.90;999.90;;;;;;;4.99;75.43;163726.31;5018117;28;20049;-67
2022/02/22 00:33:04;;;;;;;1999.90;999.90;;;;;;;4.90;76.00;163704.41;5011663;28;20049;-68
2022/02/22 00:35:30;;;;;;;1999.90;999.90;;;;;;;4.93;75.64;163712.63;5021301;28;20398;-68
2022/02/22 00:37:57;;;;;;;1999.90;999.90;;;;;;;4.89;75.77;163701.63;5022150;28;20473;-68
2022/02/22 00:40:23;;;;;;;1999.90;999.90;;;;;;;4.93;75.95;163712.63;5020587;28;20343;-68
2022/02/22 00:42:50;;;;;;;1999.90;999.90;;;;;;;4.85;76.10;163689.31;5017418;28;20049;-68
2022/02/22 00:45:16;;;;;;;1999.90;999.90;;;;;;;4.78;76.43;163671.50;5009690;28;20204;-68
2022/02/22 00:47:43;;;;;;;1999.90;999.90;;;;;;;4.97;76.31;163720.84;5020710;28;20053;-68
2022/02/22 00:50:09;;;;;;;1999.90;999.90;;;;;;;5.15;75.66;163770.28;5020859;28;20084;-68
2022/02/22 00:52:36;;;;;;;1999.90;999.90;;;;;;;4.83;76.69;163685.19;5011855;28;20166;-68
2022/02/22 00:55:03;;;;;;;1999.90;999.90;;;;;;;4.73;77.03;163657.75;5014263;28;20088;-68
2022/02/22 00:57:29;;;;;;;1999.90;999.90;;;;;;;4.74;77.14;163661.84;5014803;28;20045;-68
2022/02/22 00:59:56;;;;;;;1999.90;999.90;;;;;;;4.54;77.99;163608.38;5015266;28;20046;-68
2022/02/22 01:02:22;;;;;;;1999.90;999.90;;;;;;;4.59;78.10;163622.06;5021600;28;20119;-68
2022/02/22 01:04:49;;;;;;;1999.90;999.90;;;;;;;4.69;78.08;163646.75;5010441;28;20107;-68
2022/02/22 01:07:20;;;;;;;1999.90;999.90;;;;;;;4.84;77.79;163687.94;5014285;28;20490;-68
2022/02/22 01:09:47;;;;;;;1999.90;999.90;;;;;;;4.66;78.38;163638.53;5017639;28;20442;-68
2022/02/22 01:12:16;;;;;;;1999.90;999.90;;;;;;;4.78;78.29;163671.50;5016034;28;20072;-68
2022/02/22 01:14:43;;;;;;;1999.90;999.90;;;;;;;4.82;78.17;163681.06;5007869;28;20491;-68
2022/02/22 01:17:11;;;;;;;1999.90;999.90;;;;;;;4.90;78.08;163703.03;5006719;28;20077;-68
2022/02/22 01:19:38;;;;;;;1999.90;999.90;;;;;;;4.68;78.86;163644.06;5020428;28;20053;-68
2022/02/22 01:22:05;;;;;;;1999.90;999.90;;;;;;;5.02;78.15;163734.59;5015381;28;20045;-68
2022/02/22 01:24:32;;;;;;;1999.90;999.90;;;;;;;5.35;76.76;163822.44;5016114;28;20045;-68
2022/02/22 01:27:01;;;;;;;1999.90;999.90;;;;;;;5.24;76.94;163794.97;5016633;28;20451;-68
2022/02/22 01:29:27;;;;;;;1999.90;999.90;;;;;;;5.15;77.45;163770.28;5010285;28;20104;-68
2022/02/22 01:31:54;;;;;;;1999.90;999.90;;;;;;;4.98;78.73;163724.97;5016878;28;20077;-68
2022/02/22 01:34:20;;;;;;;1999.90;999.90;;;;;;;4.85;80.04;163689.31;5013652;28;20265;-68
2022/02/22 01:36:47;;;;;;;1999.90;999.90;;;;;;;4.88;80.91;163697.53;5008578;28;20077;-68
2022/02/22 01:39:13;;;;;;;1999.90;999.90;;;;;;;5.02;81.88;163734.59;5012366;28;20236;-68
2022/02/22 01:41:45;;;;;;;1999.90;999.90;;;;;;;4.97;82.69;163722.22;5015454;28;20512;-68
2022/02/22 01:44:13;;;;;;;1999.90;999.90;;;;;;;4.93;84.37;163712.63;5024234;28;20400;-68
2022/02/22 01:46:40;;;;;;;1999.90;999.90;;;;;;;4.70;86.38;163650.88;5016070;28;20111;-68
2022/02/22 01:49:07;;;;;;;1999.90;999.90;;;;;;;4.82;86.89;163682.44;5024724;28;20089;-68
2022/02/22 01:51:34;;;;;;;1999.90;999.90;;;;;;;4.87;88.11;163696.19;5021119;28;20046;-68
2022/02/22 01:54:00;;;;;;;1999.90;999.90;;;;;;;5.06;88.51;163745.53;5013744;28;20432;-68
2022/02/22 01:56:26;;;;;;;1999.90;999.90;;;;;;;5.14;88.85;163766.16;5026734;28;20513;-68
2022/02/22 01:58:53;;;;;;;1999.90;999.90;;;;;;;4.85;90.86;163689.31;5015026;28;20147;-68
2022/02/22 02:01:19;;;;;;;1999.90;999.90;;;;;;;5.10;90.91;163756.53;5019213;28;20332;-68
2022/02/22 02:03:47;;;;;;;1999.90;999.90;;;;;;;5.32;90.09;163814.19;5016054;28;20512;-68
2022/02/22 02:06:17;;;;;;;1999.90;999.90;;;;;;;5.14;91.03;163766.16;5019815;28;20045;-68
2022/02/22 02:08:44;;;;;;;1999.90;999.90;;;;;;;4.91;92.69;163707.16;5027922;28;20299;-68
2022/02/22 02:11:12;;;;;;;1999.90;999.90;;;;;;;5.29;91.71;163807.31;5026855;28;20046;-68
2022/02/22 02:13:39;;;;;;;1999.90;999.90;;;;;;;5.46;90.83;163854.00;5021755;28;20081;-68
2022/02/22 02:16:07;;;;;;;1999.90;999.90;;;;;;;5.43;92.24;163844.34;5017307;28;20378;-68
2022/02/22 02:18:33;;;;;;;1999.90;999.90;;;;;;;5.08;93.91;163752.41;5014632;28;20092;-68
2022/02/22 02:21:02;;;;;;;1999.90;999.90;;;;;;;4.97;95.26;163720.84;5020007;28;20050;-68
2022/02/22 02:23:29;;;;;;;1999.90;999.90;;;;;;;5.36;95.03;163825.13;5016797;28;20097;-68
2022/02/22 02:25:55;;;;;;;1999.90;999.90;;;;;;;5.42;95.39;163841.66;5019886;28;20073;-68
2022/02/22 02:28:22;;;;;;;1999.90;999.90;;;;;;;5.31;95.86;163812.78;5019880;28;20085;-68
2022/02/22 02:30:49;;;;;;;1999.90;999.90;;;;;;;4.74;99.29;163660.50;5020286;28;20108;-68
2022/02/22 02:33:18;;;;;;;1999.90;999.90;;;;;;;4.58;100.00;163619.38;5017076;28;20103;-68
2022/02/22 02:35:45;;;;;;;1999.90;999.90;;;;;;;4.37;100.00;163561.75;5016855;28;20516;-68
2022/02/22 02:38:11;;;;;;;1999.90;999.90;;;;;;;4.28;100.00;163537.06;5023600;28;20053;-68
2022/02/22 02:40:40;;;;;;;1999.90;999.90;;;;;;;4.35;100.00;163557.63;5011255;28;20057;-68
2022/02/22 02:43:06;;;;;;;1999.90;999.90;;;;;;;3.96;100.00;163452.03;5021957;28;20104;-68
2022/02/22 02:45:33;;;;;;;1999.90;999.90;;;;;;;4.07;100.00;163480.84;5022021;28;20073;-67
2022/02/22 02:48:00;;;;;;;1999.90;999.90;;;;;;;3.91;100.00;163438.34;5021657;28;20111;-67
2022/02/22 02:50:26;;;;;;;1999.90;999.90;;;;;;;4.15;100.00;163504.13;5013344;28;20497;-67
2022/02/22 02:52:53;;;;;;;1999.90;999.90;;;;;;;4.14;100.00;163501.41;5017423;28;20108;-68
2022/02/22 02:55:19;;;;;;;1999.90;999.90;;;;;;;4.18;100.00;163512.41;5011322;28;20127;-67
2022/02/22 02:57:46;;;;;;;1999.90;999.90;;;;;;;4.02;100.00;163468.47;5021090;28;20050;-67
2022/02/22 03:00:13;;;;;;;1999.90;999.90;;;;;;;3.87;100.00;163428.72;5018159;28;20046;-67
2022/02/22 03:02:40;;;;;;;1999.90;999.90;;;;;;;3.92;100.00;163441.09;5022776;28;20284;-67
2022/02/22 03:05:09;;;;;;;1999.90;999.90;;;;;;;4.07;100.00;163482.22;5012631;28;20049;-66
2022/02/22 03:07:35;;;;;;;1999.90;999.90;;;;;;;4.05;100.00;163476.75;5011278;28;20050;-67
2022/02/22 03:10:03;;;;;;;1999.90;999.90;;;;;;;4.20;100.00;163517.84;5023258;28;20103;-67
2022/02/22 03:12:31;;;;;;;1999.90;999.90;;;;;;;4.21;100.00;163519.22;5020011;28;20081;-67
2022/02/22 03:14:57;;;;;;;1999.90;999.90;;;;;;;3.48;100.00;163325.94;5016154;28;20081;-67
2022/02/22 03:17:24;;;;;;;1999.90;999.90;;;;;;;3.13;100.00;163232.72;5013493;28;20108;-67
2022/02/22 03:19:50;;;;;;;1999.90;999.90;;;;;;;3.47;100.00;163323.19;5023328;28;20076;-67
2022/02/22 03:22:17;;;;;;;1999.90;999.90;;;;;;;3.18;100.00;163246.41;5010947;28;20083;-67
2022/02/22 03:24:43;;;;;;;1999.90;999.90;;;;;;;3.53;100.00;163339.63;5018962;28;20104;-67
2022/02/22 03:27:09;;;;;;;1999.90;999.90;;;;;;;3.34;100.00;163287.56;5011632;28;20127;-67
2022/02/22 03:29:36;;;;;;;1999.90;999.90;;;;;;;3.73;98.90;163391.72;5014249;28;20081;-67
2022/02/22 03:32:03;;;;;;;1999.90;999.90;;;;;;;3.76;98.40;163398.59;5017156;28;20159;-67
2022/02/22 03:34:30;;;;;;;1999.90;999.90;;;;;;;3.64;98.38;163368.41;5020170;28;20081;-67
2022/02/22 03:36:56;;;;;;;1999.90;999.90;;;;;;;3.80;97.44;163410.91;5023520;28;20072;-67
2022/02/22 03:39:23;;;;;;;1999.90;999.90;;;;;;;3.95;96.23;163450.66;5011009;28;20124;-67
2022/02/22 03:41:49;;;;;;;1999.90;999.90;;;;;;;3.46;95.40;163319.09;5014156;28;20333;-67
2022/02/22 03:44:15;;;;;;;1999.90;999.90;;;;;;;3.68;94.94;163379.38;5013041;28;20401;-68
2022/02/22 03:46:42;;;;;;;1999.90;999.90;;;;;;;3.86;93.92;163426.00;5014323;28;20146;-67
2022/02/22 03:49:08;;;;;;;1999.90;999.90;;;;;;;3.62;94.02;163361.59;5021060;28;20069;-67
2022/02/22 03:51:35;;;;;;;1999.90;999.90;;;;;;;3.82;93.76;163415.03;5014412;28;20053;-67
2022/02/22 03:54:01;;;;;;;1999.90;999.90;;;;;;;3.83;93.40;163417.78;5015373;28;20085;-67
2022/02/22 03:56:28;;;;;;;1999.90;999.90;;;;;;;3.86;92.59;163427.34;5015604;28;20042;-68
2022/02/22 03:58:54;;;;;;;1999.90;999.90;;;;;;;4.09;91.98;163486.31;5018945;28;20080;-68
2022/02/22 04:01:21;;;;;;;1999.90;999.90;;;;;;;4.11;91.90;163493.19;5020174;28;20100;-68
2022/02/22 04:03:47;;;;;;;1999.90;999.90;;;;;;;3.79;92.31;163408.16;5014701;28;20088;-68
2022/02/22 04:06:14;;;;;;;1999.90;999.90;;;;;;;3.59;94.25;163353.31;5012082;28;20077;-67
2022/02/22 04:08:40;;;;;;;1999.90;999.90;;;;;;;3.88;92.87;163432.88;5021683;28;20083;-67
2022/02/22 04:11:07;;;;;;;1999.90;999.90;;;;;;;3.91;92.81;163439.69;5022569;28;20115;-68
2022/02/22 04:13:33;;;;;;;1999.90;999.90;;;;;;;3.62;94.08;163361.59;5022858;28;20050;-68
2022/02/22 04:16:00;;;;;;;1999.90;999.90;;;;;;;3.80;94.05;163410.91;5026967;28;20042;-68
2022/02/22 04:18:26;;;;;;;1999.90;999.90;;;;;;;3.50;94.86;163331.41;5009052;28;20049;-68
2022/02/22 04:20:53;;;;;;;1999.90;999.90;;;;;;;3.46;95.17;163320.44;5018401;28;20128;-68
2022/02/22 04:23:19;;;;;;;1999.90;999.90;;;;;;;3.41;96.25;163306.75;5009501;28;20165;-68
2022/02/22 04:25:48;;;;;;;1999.90;999.90;;;;;;;3.52;95.27;163336.88;5013784;28;20046;-68
2022/02/22 04:28:15;;;;;;;1999.90;999.90;;;;;;;3.38;95.47;163298.53;5015230;28;20402;-69
2022/02/22 04:30:41;;;;;;;1999.90;999.90;;;;;;;3.64;94.39;163367.03;5014669;28;20189;-69
2022/02/22 04:33:08;;;;;;;1999.90;999.90;;;;;;;3.78;93.85;163404.03;5020956;28;20123;-66
2022/02/22 04:35:35;;;;;;;1999.90;999.90;;;;;;;3.53;94.52;163339.63;5011184;28;20069;-66
2022/02/22 04:38:02;;;;;;;1999.90;999.90;;;;;;;3.80;93.67;163410.91;5014018;28;20057;-68
2022/02/22 04:40:29;;;;;;;1999.90;999.90;;;;;;;3.92;92.77;163442.44;5017724;28;20112;-68
2022/02/22 04:42:56;;;;;;;1999.90;999.90;;;;;;;4.05;93.02;163478.09;5016848;28;20517;-68
2022/02/22 04:45:23;;;;;;;1999.90;999.90;;;;;;;4.56;90.81;163613.84;5009644;28;20042;-68
2022/02/22 04:47:50;;;;;;;1999.90;999.90;;;;;;;4.64;90.06;163633.06;5021187;28;20053;-67
2022/02/22 04:50:18;;;;;;;1999.90;999.90;;;;;;;4.61;90.03;163624.84;5017105;28;20049;-68
2022/02/22 04:52:45;;;;;;;1999.90;999.90;;;;;;;4.51;89.98;163600.16;5013123;28;20061;-68
2022/02/22 04:55:12;;;;;;;1999.90;999.90;;;;;;;4.49;90.38;163593.28;5017454;28;20057;-68
2022/02/22 04:57:38;;;;;;;1999.90;999.90;;;;;;;4.26;90.84;163531.53;5016333;28;20056;-68
2022/02/22 05:00:09;;;;;;;1999.90;999.90;;;;;;;4.49;89.78;163594.66;5012908;28;20104;-68
2022/02/22 05:02:35;;;;;;;1999.90;999.90;;;;;;;5.04;88.15;163740.06;5020698;28;20057;-68
2022/02/22 05:05:02;;;;;;;1999.90;999.90;;;;;;;4.46;89.31;163585.06;5022729;28;20049;-68
2022/02/22 05:07:28;;;;;;;1999.90;999.90;;;;;;;4.25;90.17;163528.84;5022590;28;20057;-68
2022/02/22 05:09:55;;;;;;;1999.90;999.90;;;;;;;4.20;90.62;163516.50;5022400;28;20042;-68
2022/02/22 05:12:21;;;;;;;1999.90;999.90;;;;;;;4.67;89.34;163641.28;5015915;28;20045;-68
2022/02/22 05:14:48;;;;;;;1999.90;999.90;;;;;;;4.51;89.15;163600.16;5024295;28;20104;-68
2022/02/22 05:17:14;;;;;;;1999.90;999.90;;;;;;;4.41;89.72;163574.06;5018407;28;20086;-68
2022/02/22 05:19:41;;;;;;;1999.90;999.90;;;;;;;4.55;89.54;163611.09;5020460;28;20104;-68
2022/02/22 05:22:07;;;;;;;1999.90;999.90;;;;;;;4.23;90.30;163526.09;5026329;28;20053;-68
2022/02/22 05:24:34;;;;;;;1999.90;999.90;;;;;;;4.50;89.56;163597.41;5016196;28;20076;-68
2022/02/22 05:27:00;;;;;;;1999.90;999.90;;;;;;;4.55;89.98;163609.75;5026236;28;20054;-68
2022/02/22 05:29:27;;;;;;;1999.90;999.90;;;;;;;4.60;89.64;163623.47;5016992;28;20083;-68
2022/02/22 05:31:53;;;;;;;1999.90;999.90;;;;;;;4.52;90.53;163601.50;5020478;28;20111;-68
2022/02/22 05:34:20;;;;;;;1999.90;999.90;;;;;;;4.34;91.31;163553.53;5020366;28;20053;-68
2022/02/22 05:36:48;;;;;;;1999.90;999.90;;;;;;;4.54;90.79;163608.38;5025991;28;20435;-68
2022/02/22 05:39:15;;;;;;;1999.90;999.90;;;;;;;4.48;90.98;163590.53;5027323;28;20426;-68
2022/02/22 05:41:41;;;;;;;1999.90;999.90;;;;;;;4.59;90.75;163622.06;5017018;28;20046;-68
2022/02/22 05:44:09;;;;;;;1999.90;999.90;;;;;;;5.10;89.28;163757.88;5014559;28;20057;-67
2022/02/22 05:46:35;;;;;;;1999.90;999.90;;;;;;;5.03;88.83;163738.72;5022253;28;20060;-68
2022/02/22 05:49:02;;;;;;;1999.90;999.90;;;;;;;4.99;89.04;163726.31;5020119;28;20108;-68
2022/02/22 05:51:29;;;;;;;1999.90;999.90;;;;;;;5.09;88.86;163753.78;5020370;28;20084;-68
2022/02/22 05:53:55;;;;;;;1999.90;999.90;;;;;;;5.02;88.36;163734.59;5020933;28;20049;-68
2022/02/22 05:56:21;;;;;;;1999.90;999.90;;;;;;;4.83;89.11;163685.19;5018948;28;20078;-68
2022/02/22 05:58:48;;;;;;;1999.90;999.90;;;;;;;4.90;88.58;163704.41;5020001;28;20116;-68
2022/02/22 06:01:14;;;;;;;1999.90;999.90;;;;;;;5.07;88.22;163748.31;5018336;28;20103;-68
2022/02/22 06:03:41;;;;;;;1999.90;999.90;;;;;;;4.87;88.26;163696.19;5023200;28;20129;-68
2022/02/22 06:06:07;;;;;;;1999.90;999.90;;;;;;;4.84;88.85;163687.94;5019151;28;20042;-68
2022/02/22 06:08:34;;;;;;;1999.90;999.90;;;;;;;4.72;89.02;163655.03;5029350;28;20555;-69
2022/02/22 06:11:00;;;;;;;1999.90;999.90;;;;;;;4.94;87.69;163713.97;5024949;28;20084;-68
2022/02/22 06:13:27;;;;;;;1999.90;999.90;;;;;;;4.99;87.50;163726.31;5018980;28;20355;-69
2022/02/22 06:15:53;;;;;;;1999.90;999.90;;;;;;;4.89;87.20;163701.63;5023146;28;20513;-68
2022/02/22 06:18:20;;;;;;;1999.90;999.90;;;;;;;4.53;88.19;163605.63;5014293;28;20216;-68
2022/02/22 06:20:47;;;;;;;1999.90;999.90;;;;;;;4.70;88.20;163649.50;5024803;28;20116;-68
2022/02/22 06:23:13;;;;;;;1999.90;999.90;;;;;;;4.83;88.01;163683.84;5021683;28;20045;-68
2022/02/22 06:25:41;;;;;;;1999.90;999.90;;;;;;;4.44;88.10;163580.94;5015879;28;20050;-69
2022/02/22 06:28:08;;;;;;;1999.90;999.90;;;;;;;4.61;88.25;163626.19;5016459;28;20050;-68
2022/02/22 06:30:35;;;;;;;1999.90;999.90;;;;;;;4.81;87.89;163679.72;5016894;28;20065;-68
2022/02/22 06:33:03;;;;;;;1999.90;999.90;;;;;;;4.76;87.81;163665.97;5025050;28;20052;-68
2022/02/22 06:35:29;;;;;;;1999.90;999.90;;;;;;;5.12;86.84;163762.00;5029051;28;20496;-69
2022/02/22 06:37:56;;;;;;;1999.90;999.90;;;;;;;5.37;85.91;163829.25;5022515;28;20482;-66
2022/02/22 06:40:25;;;;;;;1999.90;999.90;;;;;;;5.59;84.70;163886.91;5016364;28;20060;-66
2022/02/22 06:42:52;;;;;;;1999.90;999.90;;;;;;;5.42;85.22;163841.66;5022427;28;20111;-66
2022/02/22 06:45:19;;;;;;;1999.90;999.90;;;;;;;5.59;84.84;163886.91;5023904;28;20426;-66
2022/02/22 06:47:46;;;;;;;1999.90;999.90;;;;;;;5.25;85.64;163797.69;5022816;28;20081;-67
2022/02/22 06:50:13;;;;;;;1999.90;999.90;;;;;;;5.00;86.42;163730.50;5014451;28;20100;-67
2022/02/22 06:52:40;;;;;;;1999.90;999.90;;;;;;;5.20;86.41;163783.97;5015008;28;20054;-68
2022/02/22 06:55:11;;;;;;;1999.90;999.90;;;;;;;5.45;85.54;163849.88;5016750;28;20076;-68
2022/02/22 06:57:38;;;;;;;1999.90;999.90;;;;;;;5.35;85.55;163823.78;5013775;28;20053;-68
2022/02/22 07:00:10;;;;;;;1999.90;999.90;;;;;;;5.49;85.38;163860.81;5016702;28;20050;-68
2022/02/22 07:02:38;;;;;;;1999.90;999.90;;;;;;;5.78;84.91;163937.72;5015743;28;20093;-68
2022/02/22 07:05:06;;;;;;;1999.90;999.90;;;;;;;5.33;84.76;163816.91;5025717;28;20045;-67
2022/02/22 07:07:33;;;;;;;1999.90;999.90;;;;;;;5.79;84.08;163941.84;5019596;28;20057;-68
2022/02/22 07:10:00;;;;;;;1999.90;999.90;;;;;;;5.99;83.97;163994.06;5018517;28;20370;-67
2022/02/22 07:12:26;;;;;;;1999.90;999.90;;;;;;;5.52;84.72;163869.06;5024658;28;20053;-68
2022/02/22 07:14:53;;;;;;;1999.90;999.90;;;;;;;5.79;84.39;163941.84;5025889;28;20127;-67
2022/02/22 07:17:21;;;;;;;1999.90;999.90;;;;;;;5.98;83.23;163992.69;5024784;28;20042;-68
2022/02/22 07:19:47;;;;;;;1999.90;999.90;;;;;;;5.96;83.35;163985.75;5022085;28;20041;-67
2022/02/22 07:22:14;;;;;;;1999.90;999.90;;;;;;;5.57;84.46;163882.81;5016155;28;20057;-67
2022/02/22 07:24:41;;;;;;;1999.90;999.90;;;;;;;5.16;85.34;163773.00;5021736;28;20346;-68
2022/02/22 07:27:07;;;;;;;1999.90;999.90;;;;;;;5.12;86.02;163762.00;5018107;28;20053;-67
2022/02/22 07:29:34;;;;;;;1999.90;999.90;;;;;;;5.00;87.09;163729.09;5021435;28;20110;-68
2022/02/22 07:32:00;;;;;;;1999.90;999.90;;;;;;;5.14;86.94;163767.53;5017622;28;20049;-69
2022/02/22 07:34:27;;;;;;;1999.90;999.90;;;;;;;5.65;85.56;163904.75;5015505;28;20056;-68
2022/02/22 07:36:54;;;;;;;1999.90;999.90;;;;;;;5.64;85.09;163902.03;5016972;28;20045;-69
2022/02/22 07:39:20;;;;;;;1999.90;999.90;;;;;;;5.73;84.72;163923.97;5020014;28;20431;-68
2022/02/22 07:41:47;;;;;;;1999.90;999.90;;;;;;;5.86;84.06;163958.31;5016564;28;20057;-69
2022/02/22 07:44:13;;;;;;;1999.90;999.90;;;;;;;5.51;85.19;163866.34;5022745;28;20347;-69
2022/02/22 07:46:42;;;;;;;1999.90;999.90;;;;;;;5.55;85.45;163877.34;5020518;28;20442;-68
2022/02/22 07:49:10;;;;;;;1999.90;999.90;;;;;;;5.65;85.41;163904.75;5023382;28;20045;-69
2022/02/22 07:51:36;;;;;;;1999.90;999.90;;;;;;;5.68;84.84;163911.63;5023342;28;20104;-67
2022/02/22 07:54:03;;;;;;;1999.90;999.90;;;;;;;5.84;84.98;163952.84;5020764;28;20116;-67
2022/02/22 07:56:31;;;;;;;1999.90;999.90;;;;;;;5.60;85.00;163891.03;5026411;28;20042;-68
2022/02/22 07:58:58;;;;;;;1999.90;999.90;;;;;;;5.29;85.10;163808.66;5015381;28;20053;-68
2022/02/22 08:01:24;;;;;;;1999.90;999.90;;;;;;;5.43;84.90;163845.75;5021603;28;20415;-68
2022/02/22 08:03:51;;;;;;;1999.90;999.90;;;;;;;5.62;84.17;163896.50;5022428;28;20404;-68
2022/02/22 08:06:17;;;;;;;1999.90;999.90;;;;;;;5.48;84.78;163858.09;5021612;28;20542;-68
2022/02/22 08:08:44;;;;;;;1999.90;999.90;;;;;;;5.54;84.78;163874.56;5023550;28;20077;-68
2022/02/22 08:11:10;;;;;;;1999.90;999.90;;;;;;;6.00;83.07;163996.81;5013748;28;20525;-68
2022/02/22 08:13:37;;;;;;;1999.90;999.90;;;;;;;5.68;83.33;163910.25;5017196;28;20050;-68
2022/02/22 08:16:05;;;;;;;1999.90;999.90;;;;;;;5.39;84.51;163834.78;5020649;28;20162;-69
2022/02/22 08:18:31;;;;;;;1999.90;999.90;;;;;;;5.54;85.45;163874.56;5009927;28;20052;-69
2022/02/22 08:20:58;;;;;;;1999.90;999.90;;;;;;;5.52;85.56;163869.06;5015515;28;20057;-69
2022/02/22 08:23:25;;;;;;;1999.90;999.90;;;;;;;5.16;86.75;163773.00;5011920;28;20053;-69
2022/02/22 08:25:52;;;;;;;1999.90;999.90;;;;;;;5.33;86.92;163816.91;5021224;28;20144;-69
2022/02/22 08:28:19;;;;;;;1999.90;999.90;;;;;;;5.37;87.03;163827.88;5020775;28;20156;-69
2022/02/22 08:30:46;;;;;;;1999.90;999.90;;;;;;;5.72;85.00;163921.25;5019602;28;20045;-69
2022/02/22 08:33:12;;;;;;;1999.90;999.90;;;;;;;5.42;85.41;163841.66;5021731;28;20136;-69
2022/02/22 08:35:40;;;;;;;1999.90;999.90;;;;;;;5.39;85.71;163834.78;5022945;28;20333;-69
2022/02/22 08:38:06;;;;;;;1999.90;999.90;;;;;;;5.83;85.49;163951.44;5016411;28;20050;-69
2022/02/22 08:40:33;;;;;;;1999.90;999.90;;;;;;;5.74;85.46;163928.09;5022957;28;20444;-69
2022/02/22 08:43:00;;;;;;;1999.90;999.90;;;;;;;5.66;86.45;163906.16;5020957;28;20042;-67
2022/02/22 08:45:26;;;;;;;1999.90;999.90;;;;;;;5.65;86.41;163904.75;5017828;28;20057;-67
2022/02/22 08:47:54;;;;;;;1999.90;999.90;;;;;;;5.98;85.47;163992.69;5018712;28;20042;-67
2022/02/22 08:50:22;;;;;;;1999.90;999.90;;;;;;;6.15;85.13;164038.00;5023365;28;20053;-68
2022/02/22 08:52:49;;;;;;;1999.90;999.90;;;;;;;6.22;85.15;164055.81;5022604;28;20125;-67
2022/02/22 08:55:16;;;;;;;1999.90;999.90;;;;;;;6.50;84.05;164130.00;5016826;28;20041;-67
2022/02/22 08:57:43;;;;;;;1999.90;999.90;;;;;;;6.25;83.91;164062.69;5012608;28;20435;-67
2022/02/22 09:00:11;;;;;;;1999.90;999.90;;;;;;;6.49;84.27;164127.22;5011408;28;20076;-68
2022/02/22 09:02:39;;;;;;;1999.90;999.90;;;;;;;6.61;83.35;164160.22;5015115;28;20064;-68
2022/02/22 09:05:08;;;;;;;1999.90;999.90;;;;;;;6.79;83.49;164206.91;5020565;28;20111;-68
2022/02/22 09:07:34;;;;;;;1999.90;999.90;;;;;;;6.67;82.81;164176.72;5018848;28;20046;-68
2022/02/22 09:10:02;;;;;;;1999.90;999.90;;;;;;;6.78;83.21;164204.19;5012949;28;20060;-67
2022/02/22 09:12:31;;;;;;;1999.90;999.90;;;;;;;6.39;83.61;164099.81;5016171;28;20060;-67
2022/02/22 09:14:59;;;;;;;1999.90;999.90;;;;;;;6.13;85.09;164032.50;5018800;28;20053;-68
2022/02/22 09:17:25;;;;;;;1999.90;999.90;;;;;;;6.23;85.85;164057.22;5010812;28;20042;-67
2022/02/22 09:19:52;;;;;;;1999.90;999.90;;;;;;;6.26;85.53;164066.81;5011668;28;20050;-67
2022/02/22 09:22:19;;;;;;;1999.90;999.90;;;;;;;6.45;83.95;164116.28;5013661;28;20438;-68
2022/02/22 09:24:45;;;;;;;1999.90;999.90;;;;;;;6.67;83.70;164176.72;5026173;28;20053;-68
2022/02/22 09:27:12;;;;;;;1999.90;999.90;;;;;;;7.10;83.50;164290.75;5012637;28;20074;-67
2022/02/22 09:29:42;;;;;;;1999.90;999.90;;;;;;;6.45;82.79;164116.28;5022515;28;20120;-67
2022/02/22 09:32:09;;;;;;;1999.90;999.90;;;;;;;5.98;85.02;163991.28;5014654;28;20050;-67
2022/02/22 09:34:36;;;;;;;1999.90;999.90;;;;;;;6.66;83.38;164172.59;5022965;28;20053;-67
2022/02/22 09:37:05;;;;;;;1999.90;999.90;;;;;;;6.87;83.46;164228.91;5024309;28;20127;-68
2022/02/22 09:39:31;;;;;;;1999.90;999.90;;;;;;;6.34;85.38;164088.81;5014660;28;20056;-68
2022/02/22 09:41:59;;;;;;;1999.90;999.90;;;;;;;6.35;86.51;164091.53;5020617;28;20072;-68
2022/02/22 09:44:26;;;;;;;1999.90;999.90;;;;;;;6.32;89.20;164081.94;5020002;28;20045;-68
2022/02/22 09:46:53;;;;;;;1999.90;999.90;;;;;;;6.81;87.91;164213.78;5028038;28;20045;-69
2022/02/22 09:49:19;;;;;;;1999.90;999.90;;;;;;;7.12;87.18;164294.88;5021595;28;20162;-69
2022/02/22 09:51:53;;;;;;;1999.90;999.90;;;;;;;7.42;84.87;164374.56;5019149;28;20053;-67
2022/02/22 09:54:21;;;;;;;1999.90;999.90;;;;;;;7.87;83.11;164495.50;5028738;28;20054;-68
2022/02/22 09:56:48;;;;;;;1999.90;999.90;;;;;;;7.84;82.74;164487.25;5021908;28;20166;-68
2022/02/22 09:59:16;;;;;;;1999.90;999.90;;;;;;;7.71;84.10;164452.88;5025114;28;20316;-69
2022/02/22 10:01:46;;;;;;;1999.90;999.90;;;;;;;7.95;81.75;164517.53;5024750;28;20057;-69
2022/02/22 10:04:13;;;;;;;1999.90;999.90;;;;;;;8.56;80.48;164679.81;5031223;28;20085;-69
2022/02/22 10:06:40;;;;;;;1999.90;999.90;;;;;;;8.36;78.72;164626.16;5026332;28;20061;-69
2022/02/22 10:09:09;;;;;;;1999.90;999.90;;;;;;;8.11;79.00;164561.53;5020734;28;20092;-69
2022/02/22 10:12:03;;;;;;;1999.90;999.90;;;;;;;8.49;79.02;164661.94;5018309;28;20057;-68
2022/02/22 10:14:35;;;;;;;1999.90;999.90;;;;;;;9.00;76.59;164798.13;5021477;28;20406;-69
2022/02/22 10:17:02;;;;;;;1999.90;999.90;;;;;;;8.27;78.94;164602.75;5019890;28;20435;-68
2022/02/22 10:19:34;;;;;;;1999.90;999.90;;;;;;;8.85;76.14;164756.88;5021907;28;20376;-68
2022/02/22 10:22:02;;;;;;;1999.90;999.90;;;;;;;9.22;75.44;164855.94;5024483;28;20049;-68
2022/02/22 10:24:30;;;;;;;1999.90;999.90;;;;;;;9.22;73.72;164857.28;5018262;28;20057;-68
2022/02/22 10:27:08;;;;;;;1999.90;999.90;;;;;;;7.67;78.30;164441.91;5019860;28;20486;-68
2022/02/22 10:29:36;;;;;;;1999.90;999.90;;;;;;;7.31;79.15;164345.69;5026710;28;20060;-68
2022/02/22 10:32:14;;;;;;;1999.90;999.90;;;;;;;7.43;79.85;164378.69;5027667;28;20137;-67
2022/02/22 10:34:41;;;;;;;1999.90;999.90;;;;;;;6.98;81.04;164259.16;5027190;28;20042;-70
2022/02/22 10:37:08;;;;;;;1999.90;999.90;;;;;;;6.96;82.08;164253.63;5021891;28;20049;-69
2022/02/22 10:39:35;;;;;;;1999.90;999.90;;;;;;;7.27;81.96;164334.72;5014558;28;20045;-69
2022/02/22 10:42:03;;;;;;;1999.90;999.90;;;;;;;7.38;81.55;164366.31;5024832;28;20063;-67
2022/02/22 10:44:39;;;;;;;1999.90;999.90;;;;;;;6.73;83.68;164190.41;5025750;28;20271;-67
2022/02/22 10:47:20;;;;;;;1999.90;999.90;;;;;;;6.73;84.06;164191.81;5015704;28;20077;-68
2022/02/22 10:49:48;;;;;;;1999.90;999.90;;;;;;;6.66;84.79;164173.94;5016803;28;20041;-68
2022/02/22 10:52:17;;;;;;;1999.90;999.90;;;;;;;6.75;85.25;164195.94;5019334;28;20373;-68
2022/02/22 10:54:44;;;;;;;1999.90;999.90;;;;;;;6.62;85.67;164162.94;5021929;28;20053;-68